sensor_id;sensor_type;location;lat;lon;timestamp;P1;durP1;ratioP1;P2;durP2;ratioP2
8640;SDS011;4358;42.100;25.222;2022-08-19T00:00:51;2.20;;;2.03;;
8640;SDS011;4358;42.100;25.222;2022-08-19T00:03:17;1.70;;;1.53;;
8640;SDS011;4358;42.100;25.222;2022-08-19T00:05:44;1.93;;;1.63;;
8640;SDS011;4358;42.100;25.222;2022-08-19T00:08:11;1.90;;;1.80;;
8640;SDS011;4358;42.100;25.222;2022-08-19T00:10:40;2.30;;;1.90;;
8640;SDS011;4358;42.100;25.222;2022-08-19T00:13:07;1.90;;;1.57;;
8640;SDS011;4358;42.100;25.222;2022-08-19T00:15:34;1.90;;;1.67;;
8640;SDS011;4358;42.100;25.222;2022-08-19T00:18:02;1.80;;;1.70;;
8640;SDS011;4358;42.100;25.222;2022-08-19T00:20:29;1.80;;;1.70;;
8640;SDS011;4358;42.100;25.222;2022-08-19T00:22:56;2.47;;;1.77;;
8640;SDS011;4358;42.100;25.222;2022-08-19T00:25:23;1.90;;;1.77;;
8640;SDS011;4358;42.100;25.222;2022-08-19T00:27:51;2.37;;;1.63;;
8640;SDS011;4358;42.100;25.222;2022-08-19T00:30:18;1.80;;;1.50;;
8640;SDS011;4358;42.100;25.222;2022-08-19T00:32:45;2.00;;;1.80;;
8640;SDS011;4358;42.100;25.222;2022-08-19T00:35:12;2.47;;;2.23;;
8640;SDS011;4358;42.100;25.222;2022-08-19T00:37:39;2.20;;;2.00;;
8640;SDS011;4358;42.100;25.222;2022-08-19T00:40:11;2.50;;;2.13;;
8640;SDS011;4358;42.100;25.222;2022-08-19T00:42:38;2.00;;;1.80;;
8640;SDS011;4358;42.100;25.222;2022-08-19T00:45:11;3.07;;;1.87;;
8640;SDS011;4358;42.100;25.222;2022-08-19T00:47:40;3.23;;;1.77;;
8640;SDS011;4358;42.100;25.222;2022-08-19T00:50:08;2.40;;;1.57;;
8640;SDS011;4358;42.100;25.222;2022-08-19T00:52:36;3.33;;;1.90;;
8640;SDS011;4358;42.100;25.222;2022-08-19T00:55:07;2.37;;;2.00;;
8640;SDS011;4358;42.100;25.222;2022-08-19T00:57:39;2.43;;;2.00;;
8640;SDS011;4358;42.100;25.222;2022-08-19T01:00:12;1.77;;;1.67;;
8640;SDS011;4358;42.100;25.222;2022-08-19T01:02:42;1.90;;;1.80;;
8640;SDS011;4358;42.100;25.222;2022-08-19T01:05:11;2.07;;;1.87;;
8640;SDS011;4358;42.100;25.222;2022-08-19T01:07:40;1.50;;;1.40;;
8640;SDS011;4358;42.100;25.222;2022-08-19T01:10:08;2.20;;;2.00;;
8640;SDS011;4358;42.100;25.222;2022-08-19T01:12:38;2.70;;;1.90;;
8640;SDS011;4358;42.100;25.222;2022-08-19T01:15:06;2.40;;;2.20;;
8640;SDS011;4358;42.100;25.222;2022-08-19T01:17:38;2.17;;;1.70;;
8640;SDS011;4358;42.100;25.222;2022-08-19T01:20:07;1.77;;;1.67;;
8640;SDS011;4358;42.100;25.222;2022-08-19T01:22:39;1.63;;;1.53;;
8640;SDS011;4358;42.100;25.222;2022-08-19T01:25:10;1.80;;;1.70;;
8640;SDS011;4358;42.100;25.222;2022-08-19T01:27:39;2.33;;;1.90;;
8640;SDS011;4358;42.100;25.222;2022-08-19T01:30:08;3.93;;;1.67;;
8640;SDS011;4358;42.100;25.222;2022-08-19T01:32:36;2.50;;;1.90;;
8640;SDS011;4358;42.100;25.222;2022-08-19T01:35:03;1.97;;;1.77;;
8640;SDS011;4358;42.100;25.222;2022-08-19T01:37:42;1.83;;;1.70;;
8640;SDS011;4358;42.100;25.222;2022-08-19T01:40:10;2.07;;;1.50;;
8640;SDS011;4358;42.100;25.222;2022-08-19T01:42:37;1.70;;;1.60;;
8640;SDS011;4358;42.100;25.222;2022-08-19T01:45:05;1.37;;;1.27;;
8640;SDS011;4358;42.100;25.222;2022-08-19T01:47:33;1.73;;;1.27;;
8640;SDS011;4358;42.100;25.222;2022-08-19T01:50:00;1.33;;;1.20;;
8640;SDS011;4358;42.100;25.222;2022-08-19T01:52:27;1.50;;;1.40;;
8640;SDS011;4358;42.100;25.222;2022-08-19T01:54:55;1.90;;;1.60;;
8640;SDS011;4358;42.100;25.222;2022-08-19T01:57:22;1.50;;;1.40;;
8640;SDS011;4358;42.100;25.222;2022-08-19T01:59:49;1.33;;;1.23;;
8640;SDS011;4358;42.100;25.222;2022-08-19T02:02:16;1.60;;;1.50;;
8640;SDS011;4358;42.100;25.222;2022-08-19T02:04:43;1.90;;;1.60;;
8640;SDS011;4358;42.100;25.222;2022-08-19T02:07:11;1.67;;;1.57;;
8640;SDS011;4358;42.100;25.222;2022-08-19T02:09:38;1.87;;;1.70;;
8640;SDS011;4358;42.100;25.222;2022-08-19T02:12:06;1.27;;;1.17;;
8640;SDS011;4358;42.100;25.222;2022-08-19T02:14:34;1.73;;;1.47;;
8640;SDS011;4358;42.100;25.222;2022-08-19T02:17:02;1.50;;;1.40;;
8640;SDS011;4358;42.100;25.222;2022-08-19T02:19:29;1.50;;;1.30;;
8640;SDS011;4358;42.100;25.222;2022-08-19T02:21:58;1.73;;;1.60;;
8640;SDS011;4358;42.100;25.222;2022-08-19T02:24:25;1.50;;;1.40;;
8640;SDS011;4358;42.100;25.222;2022-08-19T02:26:52;2.00;;;1.63;;
8640;SDS011;4358;42.100;25.222;2022-08-19T02:29:20;1.77;;;1.60;;
8640;SDS011;4358;42.100;25.222;2022-08-19T02:31:48;2.07;;;1.30;;
8640;SDS011;4358;42.100;25.222;2022-08-19T02:34:15;1.57;;;1.23;;
8640;SDS011;4358;42.100;25.222;2022-08-19T02:36:42;1.47;;;1.37;;
8640;SDS011;4358;42.100;25.222;2022-08-19T02:39:09;1.63;;;1.43;;
8640;SDS011;4358;42.100;25.222;2022-08-19T02:41:35;1.37;;;1.27;;
8640;SDS011;4358;42.100;25.222;2022-08-19T02:44:02;1.70;;;1.57;;
8640;SDS011;4358;42.100;25.222;2022-08-19T02:46:32;1.87;;;1.40;;
8640;SDS011;4358;42.100;25.222;2022-08-19T02:49:01;2.77;;;1.60;;
8640;SDS011;4358;42.100;25.222;2022-08-19T02:51:31;2.07;;;1.87;;
8640;SDS011;4358;42.100;25.222;2022-08-19T02:54:00;1.63;;;1.50;;
8640;SDS011;4358;42.100;25.222;2022-08-19T02:56:27;2.67;;;1.90;;
8640;SDS011;4358;42.100;25.222;2022-08-19T02:58:56;1.37;;;1.27;;
8640;SDS011;4358;42.100;25.222;2022-08-19T03:01:26;1.50;;;1.13;;
8640;SDS011;4358;42.100;25.222;2022-08-19T03:03:57;1.63;;;1.53;;
8640;SDS011;4358;42.100;25.222;2022-08-19T03:06:25;2.03;;;1.83;;
8640;SDS011;4358;42.100;25.222;2022-08-19T03:08:54;2.30;;;1.77;;
8640;SDS011;4358;42.100;25.222;2022-08-19T03:11:23;1.77;;;1.67;;
8640;SDS011;4358;42.100;25.222;2022-08-19T03:13:52;2.13;;;1.83;;
8640;SDS011;4358;42.100;25.222;2022-08-19T03:16:20;3.53;;;1.73;;
8640;SDS011;4358;42.100;25.222;2022-08-19T03:18:48;1.43;;;1.33;;
8640;SDS011;4358;42.100;25.222;2022-08-19T03:21:17;2.10;;;1.90;;
8640;SDS011;4358;42.100;25.222;2022-08-19T03:23:45;1.40;;;1.30;;
8640;SDS011;4358;42.100;25.222;2022-08-19T03:26:12;1.40;;;1.30;;
8640;SDS011;4358;42.100;25.222;2022-08-19T03:28:40;1.70;;;1.60;;
8640;SDS011;4358;42.100;25.222;2022-08-19T03:31:08;1.37;;;1.03;;
8640;SDS011;4358;42.100;25.222;2022-08-19T03:33:39;1.30;;;1.20;;
8640;SDS011;4358;42.100;25.222;2022-08-19T03:36:07;2.50;;;1.67;;
8640;SDS011;4358;42.100;25.222;2022-08-19T03:38:38;1.40;;;1.23;;
8640;SDS011;4358;42.100;25.222;2022-08-19T03:41:07;1.70;;;1.60;;
8640;SDS011;4358;42.100;25.222;2022-08-19T03:43:36;1.10;;;1.00;;
8640;SDS011;4358;42.100;25.222;2022-08-19T03:46:05;1.23;;;1.13;;
8640;SDS011;4358;42.100;25.222;2022-08-19T03:48:33;1.57;;;1.47;;
8640;SDS011;4358;42.100;25.222;2022-08-19T03:51:02;1.40;;;1.30;;
8640;SDS011;4358;42.100;25.222;2022-08-19T03:53:31;1.67;;;1.57;;
8640;SDS011;4358;42.100;25.222;2022-08-19T03:56:00;1.60;;;1.30;;
8640;SDS011;4358;42.100;25.222;2022-08-19T03:58:28;1.87;;;1.57;;
8640;SDS011;4358;42.100;25.222;2022-08-19T04:00:56;1.03;;;1.03;;
8640;SDS011;4358;42.100;25.222;2022-08-19T04:03:23;1.27;;;1.17;;
8640;SDS011;4358;42.100;25.222;2022-08-19T04:05:52;1.37;;;1.27;;
8640;SDS011;4358;42.100;25.222;2022-08-19T04:08:19;0.93;;;0.93;;
8640;SDS011;4358;42.100;25.222;2022-08-19T04:10:47;1.30;;;1.20;;
8640;SDS011;4358;42.100;25.222;2022-08-19T04:13:16;1.40;;;1.30;;
8640;SDS011;4358;42.100;25.222;2022-08-19T04:15:45;1.50;;;1.23;;
8640;SDS011;4358;42.100;25.222;2022-08-19T04:18:12;1.50;;;1.30;;
8640;SDS011;4358;42.100;25.222;2022-08-19T04:20:43;1.27;;;1.17;;
8640;SDS011;4358;42.100;25.222;2022-08-19T04:23:13;1.30;;;1.20;;
8640;SDS011;4358;42.100;25.222;2022-08-19T04:25:41;1.23;;;1.13;;
8640;SDS011;4358;42.100;25.222;2022-08-19T04:28:09;1.37;;;1.27;;
8640;SDS011;4358;42.100;25.222;2022-08-19T04:30:40;1.00;;;0.93;;
8640;SDS011;4358;42.100;25.222;2022-08-19T04:33:09;1.30;;;1.20;;
8640;SDS011;4358;42.100;25.222;2022-08-19T04:35:37;1.30;;;1.20;;
8640;SDS011;4358;42.100;25.222;2022-08-19T04:38:05;1.90;;;1.50;;
8640;SDS011;4358;42.100;25.222;2022-08-19T04:40:32;1.60;;;1.50;;
8640;SDS011;4358;42.100;25.222;2022-08-19T04:43:16;1.50;;;1.40;;
8640;SDS011;4358;42.100;25.222;2022-08-19T04:45:45;1.47;;;1.37;;
8640;SDS011;4358;42.100;25.222;2022-08-19T04:48:12;1.27;;;1.17;;
8640;SDS011;4358;42.100;25.222;2022-08-19T04:50:40;1.47;;;1.33;;
8640;SDS011;4358;42.100;25.222;2022-08-19T04:53:09;1.43;;;1.33;;
8640;SDS011;4358;42.100;25.222;2022-08-19T04:55:38;2.37;;;2.17;;
8640;SDS011;4358;42.100;25.222;2022-08-19T04:58:06;1.50;;;1.10;;
8640;SDS011;4358;42.100;25.222;2022-08-19T05:00:33;1.90;;;1.60;;
8640;SDS011;4358;42.100;25.222;2022-08-19T05:03:01;1.57;;;1.47;;
8640;SDS011;4358;42.100;25.222;2022-08-19T05:05:28;3.37;;;1.87;;
8640;SDS011;4358;42.100;25.222;2022-08-19T05:07:56;1.77;;;1.60;;
8640;SDS011;4358;42.100;25.222;2022-08-19T05:10:23;1.60;;;1.50;;
8640;SDS011;4358;42.100;25.222;2022-08-19T05:12:51;2.13;;;1.83;;
8640;SDS011;4358;42.100;25.222;2022-08-19T05:15:18;1.83;;;1.53;;
8640;SDS011;4358;42.100;25.222;2022-08-19T05:17:45;1.77;;;1.60;;
8640;SDS011;4358;42.100;25.222;2022-08-19T05:20:27;4.33;;;1.83;;
8640;SDS011;4358;42.100;25.222;2022-08-19T05:23:11;1.97;;;1.53;;
8640;SDS011;4358;42.100;25.222;2022-08-19T05:25:42;1.50;;;1.40;;
8640;SDS011;4358;42.100;25.222;2022-08-19T05:28:09;1.67;;;1.57;;
8640;SDS011;4358;42.100;25.222;2022-08-19T05:30:36;2.03;;;1.90;;
8640;SDS011;4358;42.100;25.222;2022-08-19T05:33:05;1.63;;;1.53;;
8640;SDS011;4358;42.100;25.222;2022-08-19T05:35:37;2.33;;;1.90;;
8640;SDS011;4358;42.100;25.222;2022-08-19T05:38:04;2.50;;;1.80;;
8640;SDS011;4358;42.100;25.222;2022-08-19T05:40:33;2.97;;;1.80;;
8640;SDS011;4358;42.100;25.222;2022-08-19T05:43:01;1.70;;;1.60;;
8640;SDS011;4358;42.100;25.222;2022-08-19T05:45:28;1.67;;;1.43;;
8640;SDS011;4358;42.100;25.222;2022-08-19T05:47:55;1.80;;;1.53;;
8640;SDS011;4358;42.100;25.222;2022-08-19T05:50:22;1.60;;;1.23;;
8640;SDS011;4358;42.100;25.222;2022-08-19T05:52:51;2.20;;;1.40;;
8640;SDS011;4358;42.100;25.222;2022-08-19T05:55:18;1.70;;;1.60;;
8640;SDS011;4358;42.100;25.222;2022-08-19T05:57:47;1.70;;;1.60;;
8640;SDS011;4358;42.100;25.222;2022-08-19T06:00:14;1.90;;;1.70;;
8640;SDS011;4358;42.100;25.222;2022-08-19T06:02:42;1.63;;;1.53;;
8640;SDS011;4358;42.100;25.222;2022-08-19T06:05:09;3.37;;;3.07;;
8640;SDS011;4358;42.100;25.222;2022-08-19T06:07:37;3.53;;;2.77;;
8640;SDS011;4358;42.100;25.222;2022-08-19T06:10:07;3.00;;;2.40;;
8640;SDS011;4358;42.100;25.222;2022-08-19T06:12:35;4.60;;;3.30;;
8640;SDS011;4358;42.100;25.222;2022-08-19T06:15:04;4.77;;;3.20;;
8640;SDS011;4358;42.100;25.222;2022-08-19T06:17:33;2.37;;;2.17;;
8640;SDS011;4358;42.100;25.222;2022-08-19T06:20:00;2.77;;;2.47;;
8640;SDS011;4358;42.100;25.222;2022-08-19T06:22:27;3.33;;;2.40;;
8640;SDS011;4358;42.100;25.222;2022-08-19T06:24:55;2.03;;;1.93;;
8640;SDS011;4358;42.100;25.222;2022-08-19T06:27:23;2.70;;;2.20;;
8640;SDS011;4358;42.100;25.222;2022-08-19T06:29:50;1.77;;;1.67;;
8640;SDS011;4358;42.100;25.222;2022-08-19T06:32:18;2.03;;;1.83;;
8640;SDS011;4358;42.100;25.222;2022-08-19T06:34:45;4.07;;;3.00;;
8640;SDS011;4358;42.100;25.222;2022-08-19T06:37:12;3.03;;;2.10;;
8640;SDS011;4358;42.100;25.222;2022-08-19T06:39:40;2.40;;;2.10;;
8640;SDS011;4358;42.100;25.222;2022-08-19T06:42:09;2.70;;;2.20;;
8640;SDS011;4358;42.100;25.222;2022-08-19T06:44:43;2.00;;;1.80;;
8640;SDS011;4358;42.100;25.222;2022-08-19T06:47:12;2.07;;;1.80;;
8640;SDS011;4358;42.100;25.222;2022-08-19T06:49:40;2.65;;;2.13;;
8640;SDS011;4358;42.100;25.222;2022-08-19T06:52:08;2.10;;;1.90;;
8640;SDS011;4358;42.100;25.222;2022-08-19T06:54:37;3.13;;;2.17;;
8640;SDS011;4358;42.100;25.222;2022-08-19T06:57:04;4.47;;;3.30;;
8640;SDS011;4358;42.100;25.222;2022-08-19T06:59:34;5.43;;;2.30;;
8640;SDS011;4358;42.100;25.222;2022-08-19T07:02:04;2.65;;;2.20;;
8640;SDS011;4358;42.100;25.222;2022-08-19T07:04:32;5.38;;;2.53;;
8640;SDS011;4358;42.100;25.222;2022-08-19T07:07:01;3.22;;;2.58;;
8640;SDS011;4358;42.100;25.222;2022-08-19T07:09:31;2.63;;;2.00;;
8640;SDS011;4358;42.100;25.222;2022-08-19T07:11:58;2.25;;;2.05;;
8640;SDS011;4358;42.100;25.222;2022-08-19T07:14:26;2.33;;;2.05;;
8640;SDS011;4358;42.100;25.222;2022-08-19T07:16:54;2.22;;;2.03;;
8640;SDS011;4358;42.100;25.222;2022-08-19T07:19:25;3.00;;;2.30;;
8640;SDS011;4358;42.100;25.222;2022-08-19T07:21:53;2.30;;;2.10;;
8640;SDS011;4358;42.100;25.222;2022-08-19T07:24:20;2.13;;;1.92;;
8640;SDS011;4358;42.100;25.222;2022-08-19T07:26:50;2.40;;;2.20;;
8640;SDS011;4358;42.100;25.222;2022-08-19T07:29:19;2.05;;;1.50;;
8640;SDS011;4358;42.100;25.222;2022-08-19T07:31:48;2.83;;;2.17;;
8640;SDS011;4358;42.100;25.222;2022-08-19T07:34:16;2.63;;;1.88;;
8640;SDS011;4358;42.100;25.222;2022-08-19T07:36:45;2.22;;;1.98;;
8640;SDS011;4358;42.100;25.222;2022-08-19T07:39:13;2.10;;;1.90;;
8640;SDS011;4358;42.100;25.222;2022-08-19T07:41:42;1.90;;;1.48;;
8640;SDS011;4358;42.100;25.222;2022-08-19T07:44:10;1.90;;;1.70;;
8640;SDS011;4358;42.100;25.222;2022-08-19T07:46:38;2.28;;;1.75;;
8640;SDS011;4358;42.100;25.222;2022-08-19T07:49:08;2.03;;;1.77;;
8640;SDS011;4358;42.100;25.222;2022-08-19T07:51:46;2.38;;;1.98;;
8640;SDS011;4358;42.100;25.222;2022-08-19T07:54:14;1.63;;;1.50;;
8640;SDS011;4358;42.100;25.222;2022-08-19T07:56:42;1.83;;;1.73;;
8640;SDS011;4358;42.100;25.222;2022-08-19T07:59:09;2.03;;;1.88;;
8640;SDS011;4358;42.100;25.222;2022-08-19T08:01:37;2.05;;;1.83;;
8640;SDS011;4358;42.100;25.222;2022-08-19T08:04:05;2.08;;;1.85;;
8640;SDS011;4358;42.100;25.222;2022-08-19T08:06:52;2.65;;;2.35;;
8640;SDS011;4358;42.100;25.222;2022-08-19T08:09:38;2.33;;;2.13;;
8640;SDS011;4358;42.100;25.222;2022-08-19T08:12:07;2.38;;;1.75;;
8640;SDS011;4358;42.100;25.222;2022-08-19T08:14:37;2.05;;;1.85;;
8640;SDS011;4358;42.100;25.222;2022-08-19T08:17:06;1.98;;;1.77;;
8640;SDS011;4358;42.100;25.222;2022-08-19T08:19:34;2.35;;;1.90;;
8640;SDS011;4358;42.100;25.222;2022-08-19T08:22:03;1.92;;;1.73;;
8640;SDS011;4358;42.100;25.222;2022-08-19T08:24:31;2.22;;;1.95;;
8640;SDS011;4358;42.100;25.222;2022-08-19T08:27:00;2.38;;;2.03;;
8640;SDS011;4358;42.100;25.222;2022-08-19T08:29:30;2.90;;;1.73;;
8640;SDS011;4358;42.100;25.222;2022-08-19T08:31:58;3.95;;;1.90;;
8640;SDS011;4358;42.100;25.222;2022-08-19T08:34:26;2.05;;;1.85;;
8640;SDS011;4358;42.100;25.222;2022-08-19T08:36:53;1.63;;;1.52;;
8640;SDS011;4358;42.100;25.222;2022-08-19T08:39:21;2.30;;;2.10;;
8640;SDS011;4358;42.100;25.222;2022-08-19T08:41:50;2.25;;;2.05;;
8640;SDS011;4358;42.100;25.222;2022-08-19T08:44:21;2.75;;;1.85;;
8640;SDS011;4358;42.100;25.222;2022-08-19T08:46:50;2.00;;;1.90;;
8640;SDS011;4358;42.100;25.222;2022-08-19T08:49:29;4.32;;;2.03;;
8640;SDS011;4358;42.100;25.222;2022-08-19T08:52:03;2.72;;;2.40;;
8640;SDS011;4358;42.100;25.222;2022-08-19T08:54:35;3.83;;;2.20;;
8640;SDS011;4358;42.100;25.222;2022-08-19T08:57:07;4.93;;;2.13;;
8640;SDS011;4358;42.100;25.222;2022-08-19T08:59:39;3.85;;;2.35;;
8640;SDS011;4358;42.100;25.222;2022-08-19T09:02:08;2.60;;;2.40;;
8640;SDS011;4358;42.100;25.222;2022-08-19T09:04:35;3.40;;;2.53;;
8640;SDS011;4358;42.100;25.222;2022-08-19T09:07:16;2.75;;;2.55;;
8640;SDS011;4358;42.100;25.222;2022-08-19T09:10:02;2.40;;;2.20;;
8640;SDS011;4358;42.100;25.222;2022-08-19T09:12:35;2.20;;;2.00;;
8640;SDS011;4358;42.100;25.222;2022-08-19T09:15:13;4.05;;;2.30;;
8640;SDS011;4358;42.100;25.222;2022-08-19T09:17:42;2.40;;;2.20;;
8640;SDS011;4358;42.100;25.222;2022-08-19T09:20:14;2.42;;;2.22;;
8640;SDS011;4358;42.100;25.222;2022-08-19T09:22:44;2.15;;;1.98;;
8640;SDS011;4358;42.100;25.222;2022-08-19T09:25:16;2.47;;;2.08;;
8640;SDS011;4358;42.100;25.222;2022-08-19T09:27:46;2.42;;;2.22;;
8640;SDS011;4358;42.100;25.222;2022-08-19T09:30:15;2.58;;;2.38;;
8640;SDS011;4358;42.100;25.222;2022-08-19T09:32:44;2.53;;;2.30;;
8640;SDS011;4358;42.100;25.222;2022-08-19T09:35:11;2.60;;;2.28;;
8640;SDS011;4358;42.100;25.222;2022-08-19T09:37:40;2.42;;;2.22;;
8640;SDS011;4358;42.100;25.222;2022-08-19T09:40:08;2.35;;;2.15;;
8640;SDS011;4358;42.100;25.222;2022-08-19T09:42:37;2.83;;;2.50;;
8640;SDS011;4358;42.100;25.222;2022-08-19T09:45:05;2.50;;;2.30;;
8640;SDS011;4358;42.100;25.222;2022-08-19T09:47:32;2.83;;;2.55;;
8640;SDS011;4358;42.100;25.222;2022-08-19T09:50:01;2.80;;;2.30;;
8640;SDS011;4358;42.100;25.222;2022-08-19T09:52:28;2.50;;;2.13;;
8640;SDS011;4358;42.100;25.222;2022-08-19T09:54:55;2.60;;;2.40;;
8640;SDS011;4358;42.100;25.222;2022-08-19T09:57:22;3.38;;;2.70;;
8640;SDS011;4358;42.100;25.222;2022-08-19T09:59:50;2.50;;;2.30;;
8640;SDS011;4358;42.100;25.222;2022-08-19T10:02:18;3.38;;;2.40;;
8640;SDS011;4358;42.100;25.222;2022-08-19T10:04:45;3.75;;;2.60;;
8640;SDS011;4358;42.100;25.222;2022-08-19T10:07:30;3.30;;;2.45;;
8640;SDS011;4358;42.100;25.222;2022-08-19T10:09:56;2.45;;;2.25;;
8640;SDS011;4358;42.100;25.222;2022-08-19T10:12:23;3.08;;;2.70;;
8640;SDS011;4358;42.100;25.222;2022-08-19T10:14:52;3.45;;;2.40;;
8640;SDS011;4358;42.100;25.222;2022-08-19T10:17:19;3.42;;;2.90;;
8640;SDS011;4358;42.100;25.222;2022-08-19T10:19:46;2.85;;;2.65;;
8640;SDS011;4358;42.100;25.222;2022-08-19T10:22:13;2.40;;;2.20;;
8640;SDS011;4358;42.100;25.222;2022-08-19T10:24:41;2.33;;;2.13;;
8640;SDS011;4358;42.100;25.222;2022-08-19T10:27:08;5.93;;;2.25;;
8640;SDS011;4358;42.100;25.222;2022-08-19T10:29:35;5.65;;;2.63;;
8640;SDS011;4358;42.100;25.222;2022-08-19T10:32:04;2.70;;;2.38;;
8640;SDS011;4358;42.100;25.222;2022-08-19T10:34:33;2.70;;;2.50;;
8640;SDS011;4358;42.100;25.222;2022-08-19T10:37:02;3.10;;;2.03;;
8640;SDS011;4358;42.100;25.222;2022-08-19T10:39:30;2.55;;;2.03;;
8640;SDS011;4358;42.100;25.222;2022-08-19T10:41:58;2.40;;;2.20;;
8640;SDS011;4358;42.100;25.222;2022-08-19T10:44:25;2.70;;;2.40;;
8640;SDS011;4358;42.100;25.222;2022-08-19T10:46:55;2.67;;;2.25;;
8640;SDS011;4358;42.100;25.222;2022-08-19T10:49:23;2.58;;;2.38;;
8640;SDS011;4358;42.100;25.222;2022-08-19T10:51:50;2.63;;;2.42;;
8640;SDS011;4358;42.100;25.222;2022-08-19T10:54:34;2.50;;;2.30;;
8640;SDS011;4358;42.100;25.222;2022-08-19T10:57:19;2.92;;;2.63;;
8640;SDS011;4358;42.100;25.222;2022-08-19T10:59:49;2.83;;;2.53;;
8640;SDS011;4358;42.100;25.222;2022-08-19T11:02:16;3.15;;;2.47;;
8640;SDS011;4358;42.100;25.222;2022-08-19T11:04:44;3.88;;;2.65;;
8640;SDS011;4358;42.100;25.222;2022-08-19T11:07:11;4.55;;;2.47;;
8640;SDS011;4358;42.100;25.222;2022-08-19T11:09:39;2.92;;;2.63;;
8640;SDS011;4358;42.100;25.222;2022-08-19T11:12:07;3.13;;;2.10;;
8640;SDS011;4358;42.100;25.222;2022-08-19T11:14:35;3.22;;;2.72;;
8640;SDS011;4358;42.100;25.222;2022-08-19T11:17:03;2.83;;;2.40;;
8640;SDS011;4358;42.100;25.222;2022-08-19T11:19:32;3.05;;;2.85;;
8640;SDS011;4358;42.100;25.222;2022-08-19T11:22:02;3.53;;;3.03;;
8640;SDS011;4358;42.100;25.222;2022-08-19T11:24:29;3.08;;;2.60;;
8640;SDS011;4358;42.100;25.222;2022-08-19T11:27:00;3.17;;;2.85;;
8640;SDS011;4358;42.100;25.222;2022-08-19T11:29:30;2.67;;;2.47;;
8640;SDS011;4358;42.100;25.222;2022-08-19T11:31:57;5.35;;;2.85;;
8640;SDS011;4358;42.100;25.222;2022-08-19T11:34:27;3.30;;;2.72;;
8640;SDS011;4358;42.100;25.222;2022-08-19T11:36:55;3.70;;;2.50;;
8640;SDS011;4358;42.100;25.222;2022-08-19T11:39:25;2.55;;;2.35;;
8640;SDS011;4358;42.100;25.222;2022-08-19T11:41:53;3.85;;;2.90;;
8640;SDS011;4358;42.100;25.222;2022-08-19T11:44:20;2.95;;;2.67;;
8640;SDS011;4358;42.100;25.222;2022-08-19T11:46:47;3.28;;;2.88;;
8640;SDS011;4358;42.100;25.222;2022-08-19T11:49:15;2.88;;;2.63;;
8640;SDS011;4358;42.100;25.222;2022-08-19T11:51:45;2.80;;;2.60;;
8640;SDS011;4358;42.100;25.222;2022-08-19T11:54:14;4.47;;;2.65;;
8640;SDS011;4358;42.100;25.222;2022-08-19T11:56:44;2.63;;;2.42;;
8640;SDS011;4358;42.100;25.222;2022-08-19T11:59:12;3.17;;;2.85;;
8640;SDS011;4358;42.100;25.222;2022-08-19T12:01:39;2.70;;;2.50;;
8640;SDS011;4358;42.100;25.222;2022-08-19T12:04:07;3.22;;;2.92;;
8640;SDS011;4358;42.100;25.222;2022-08-19T12:06:37;3.17;;;2.45;;
8640;SDS011;4358;42.100;25.222;2022-08-19T12:09:05;5.07;;;2.60;;
8640;SDS011;4358;42.100;25.222;2022-08-19T12:11:33;2.53;;;2.33;;
8640;SDS011;4358;42.100;25.222;2022-08-19T12:14:03;2.60;;;2.40;;
8640;SDS011;4358;42.100;25.222;2022-08-19T12:16:30;2.95;;;2.65;;
8640;SDS011;4358;42.100;25.222;2022-08-19T12:18:58;3.13;;;2.75;;
8640;SDS011;4358;42.100;25.222;2022-08-19T12:21:29;2.65;;;2.45;;
8640;SDS011;4358;42.100;25.222;2022-08-19T12:23:57;2.90;;;2.60;;
8640;SDS011;4358;42.100;25.222;2022-08-19T12:26:27;2.63;;;2.42;;
8640;SDS011;4358;42.100;25.222;2022-08-19T12:28:56;4.53;;;3.22;;
8640;SDS011;4358;42.100;25.222;2022-08-19T12:31:26;2.95;;;2.65;;
8640;SDS011;4358;42.100;25.222;2022-08-19T12:33:53;5.35;;;2.88;;
8640;SDS011;4358;42.100;25.222;2022-08-19T12:36:20;3.03;;;2.70;;
8640;SDS011;4358;42.100;25.222;2022-08-19T12:38:48;3.40;;;3.10;;
8640;SDS011;4358;42.100;25.222;2022-08-19T12:41:15;5.28;;;3.28;;
8640;SDS011;4358;42.100;25.222;2022-08-19T12:43:43;2.88;;;2.60;;
8640;SDS011;4358;42.100;25.222;2022-08-19T12:46:11;4.32;;;2.65;;
8640;SDS011;4358;42.100;25.222;2022-08-19T12:48:40;3.20;;;2.80;;
8640;SDS011;4358;42.100;25.222;2022-08-19T12:51:11;3.40;;;3.10;;
8640;SDS011;4358;42.100;25.222;2022-08-19T12:53:39;3.28;;;2.45;;
8640;SDS011;4358;42.100;25.222;2022-08-19T12:56:06;2.63;;;2.42;;
8640;SDS011;4358;42.100;25.222;2022-08-19T12:58:35;2.28;;;2.08;;
8640;SDS011;4358;42.100;25.222;2022-08-19T13:01:06;4.60;;;2.80;;
8640;SDS011;4358;42.100;25.222;2022-08-19T13:03:33;2.90;;;2.53;;
8640;SDS011;4358;42.100;25.222;2022-08-19T13:06:02;3.20;;;2.88;;
8640;SDS011;4358;42.100;25.222;2022-08-19T13:08:29;2.60;;;2.40;;
8640;SDS011;4358;42.100;25.222;2022-08-19T13:10:56;2.63;;;2.42;;
8640;SDS011;4358;42.100;25.222;2022-08-19T13:13:23;2.85;;;2.65;;
8640;SDS011;4358;42.100;25.222;2022-08-19T13:15:51;3.15;;;2.40;;
8640;SDS011;4358;42.100;25.222;2022-08-19T13:18:18;3.65;;;2.70;;
8640;SDS011;4358;42.100;25.222;2022-08-19T13:20:45;2.88;;;2.53;;
8640;SDS011;4358;42.100;25.222;2022-08-19T13:23:13;2.47;;;2.28;;
8640;SDS011;4358;42.100;25.222;2022-08-19T13:25:40;2.90;;;2.58;;
8640;SDS011;4358;42.100;25.222;2022-08-19T13:28:07;2.92;;;2.67;;
8640;SDS011;4358;42.100;25.222;2022-08-19T13:30:34;2.60;;;2.40;;
8640;SDS011;4358;42.100;25.222;2022-08-19T13:33:18;2.53;;;2.33;;
8640;SDS011;4358;42.100;25.222;2022-08-19T13:35:46;6.93;;;2.53;;
8640;SDS011;4358;42.100;25.222;2022-08-19T13:38:17;3.58;;;2.50;;
8640;SDS011;4358;42.100;25.222;2022-08-19T13:40:46;2.60;;;2.40;;
8640;SDS011;4358;42.100;25.222;2022-08-19T13:43:14;2.85;;;2.65;;
8640;SDS011;4358;42.100;25.222;2022-08-19T13:45:42;4.65;;;2.92;;
8640;SDS011;4358;42.100;25.222;2022-08-19T13:48:10;3.55;;;2.67;;
8640;SDS011;4358;42.100;25.222;2022-08-19T13:50:38;2.90;;;2.60;;
8640;SDS011;4358;42.100;25.222;2022-08-19T13:53:07;2.88;;;2.60;;
8640;SDS011;4358;42.100;25.222;2022-08-19T13:55:36;3.97;;;2.25;;
8640;SDS011;4358;42.100;25.222;2022-08-19T13:58:03;3.00;;;2.72;;
8640;SDS011;4358;42.100;25.222;2022-08-19T14:00:32;3.00;;;2.75;;
8640;SDS011;4358;42.100;25.222;2022-08-19T14:03:00;6.25;;;2.47;;
8640;SDS011;4358;42.100;25.222;2022-08-19T14:05:27;3.00;;;2.70;;
8640;SDS011;4358;42.100;25.222;2022-08-19T14:07:56;2.90;;;2.55;;
8640;SDS011;4358;42.100;25.222;2022-08-19T14:10:24;2.65;;;2.45;;
8640;SDS011;4358;42.100;25.222;2022-08-19T14:12:55;2.58;;;2.38;;
8640;SDS011;4358;42.100;25.222;2022-08-19T14:15:23;2.60;;;2.35;;
8640;SDS011;4358;42.100;25.222;2022-08-19T14:17:51;2.33;;;2.13;;
8640;SDS011;4358;42.100;25.222;2022-08-19T14:20:19;2.75;;;2.47;;
8640;SDS011;4358;42.100;25.222;2022-08-19T14:22:47;2.80;;;2.35;;
8640;SDS011;4358;42.100;25.222;2022-08-19T14:25:15;4.07;;;2.40;;
8640;SDS011;4358;42.100;25.222;2022-08-19T14:27:43;3.22;;;2.60;;
8640;SDS011;4358;42.100;25.222;2022-08-19T14:30:14;2.55;;;2.35;;
8640;SDS011;4358;42.100;25.222;2022-08-19T14:32:42;2.65;;;2.45;;
8640;SDS011;4358;42.100;25.222;2022-08-19T14:35:09;2.70;;;2.50;;
8640;SDS011;4358;42.100;25.222;2022-08-19T14:37:39;2.92;;;2.55;;
8640;SDS011;4358;42.100;25.222;2022-08-19T14:40:08;4.13;;;2.42;;
8640;SDS011;4358;42.100;25.222;2022-08-19T14:42:35;2.70;;;2.50;;
8640;SDS011;4358;42.100;25.222;2022-08-19T14:45:02;2.38;;;2.17;;
8640;SDS011;4358;42.100;25.222;2022-08-19T14:47:32;9.95;;;2.67;;
8640;SDS011;4358;42.100;25.222;2022-08-19T14:49:59;3.20;;;2.58;;
8640;SDS011;4358;42.100;25.222;2022-08-19T14:52:26;3.72;;;3.00;;
8640;SDS011;4358;42.100;25.222;2022-08-19T14:54:53;2.80;;;2.50;;
8640;SDS011;4358;42.100;25.222;2022-08-19T14:57:20;3.75;;;2.90;;
8640;SDS011;4358;42.100;25.222;2022-08-19T14:59:47;3.17;;;2.88;;
8640;SDS011;4358;42.100;25.222;2022-08-19T15:02:14;2.45;;;2.25;;
8640;SDS011;4358;42.100;25.222;2022-08-19T15:04:42;3.95;;;3.05;;
8640;SDS011;4358;42.100;25.222;2022-08-19T15:07:10;3.22;;;2.92;;
8640;SDS011;4358;42.100;25.222;2022-08-19T15:09:36;3.17;;;2.90;;